Time;durP1;ratioP1;P1;durP2;ratioP2;P2;SDS_P1;SDS_P2;PMS_P1;PMS_P2;Temp;Humidity;BMP_temperature;BMP_pressure;BME280_temperature;BME280_humidity;BME280_pressure;Samples;Min_cycle;Max_cycle;Signal;HPM_P1;HPM_P2
2021/06/06 00:02:12;;;;;;;1999.90;999.90;;;15.30;99.90;;;;;;5101372;28;20203;-78
2021/06/06 00:04:43;;;;;;;1999.90;999.90;;;15.30;99.90;;;;;;5083501;28;20250;-78
2021/06/06 00:07:10;;;;;;;1999.90;999.90;;;15.40;99.90;;;;;;5101417;28;20184;-78
2021/06/06 00:09:36;;;;;;;1999.90;999.90;;;15.30;99.90;;;;;;5100907;28;20176;-78
2021/06/06 00:12:03;;;;;;;1999.90;999.90;;;15.30;99.90;;;;;;5100908;28;20309;-78
2021/06/06 00:14:32;;;;;;;1999.90;999.90;;;15.30;99.90;;;;;;5082991;28;20172;-78
2021/06/06 00:17:01;;;;;;;1999.90;999.90;;;15.30;99.90;;;;;;5100568;28;20169;-78
2021/06/06 00:19:27;;;;;;;1999.90;999.90;;;15.30;99.90;;;;;;5101235;28;20231;-78
2021/06/06 00:21:54;;;;;;;1999.90;999.90;;;15.20;99.90;;;;;;5082585;28;20192;-78
2021/06/06 00:24:23;;;;;;;1999.90;999.90;;;15.20;99.90;;;;;;5100410;28;20176;-78
2021/06/06 00:26:48;;;;;;;1999.90;999.90;;;15.30;99.90;;;;;;5101014;28;20659;-78
2021/06/06 00:29:14;;;;;;;1999.90;999.90;;;15.30;99.90;;;;;;5100868;28;20184;-78
2021/06/06 00:31:40;;;;;;;1999.90;999.90;;;15.30;99.90;;;;;;5100763;28;20254;-78
2021/06/06 00:34:06;;;;;;;1999.90;999.90;;;15.30;99.90;;;;;;5100715;28;20179;-78
2021/06/06 00:36:33;;;;;;;1999.90;999.90;;;15.30;99.90;;;;;;5101074;28;20176;-78
2021/06/06 00:38:59;;;;;;;1999.90;999.90;;;15.30;99.90;;;;;;5083014;28;20168;-78
2021/06/06 00:41:27;;;;;;;1999.90;999.90;;;15.40;99.90;;;;;;5100235;28;20238;-78
2021/06/06 00:43:54;;;;;;;1999.90;999.90;;;15.30;99.90;;;;;;5100585;28;20591;-78
2021/06/06 00:46:21;;;;;;;1999.90;999.90;;;15.40;99.90;;;;;;5100667;28;20184;-78
2021/06/06 00:48:48;;;;;;;1999.90;999.90;;;15.40;99.90;;;;;;5100712;28;20191;-78
2021/06/06 00:51:21;;;;;;;1999.90;999.90;;;15.40;99.90;;;;;;5100267;28;20690;-78
2021/06/06 00:53:54;;;;;;;1999.90;999.90;;;15.40;99.90;;;;;;5082411;28;20173;-78
2021/06/06 00:56:24;;;;;;;1999.90;999.90;;;15.40;99.90;;;;;;5100231;28;20161;-78
2021/06/06 00:58:52;;;;;;;1999.90;999.90;;;15.30;99.90;;;;;;5101045;28;20201;-78
2021/06/06 01:01:18;;;;;;;1999.90;999.90;;;15.40;99.90;;;;;;5082466;28;20286;-77
2021/06/06 01:03:49;;;;;;;1999.90;999.90;;;15.40;99.90;;;;;;5100286;28;20244;-78
2021/06/06 01:06:40;;;;;;;1999.90;999.90;;;15.40;99.90;;;;;;5082810;28;20172;-78
2021/06/06 01:09:09;;;;;;;1999.90;999.90;;;15.40;99.90;;;;;;5100096;28;20230;-79
2021/06/06 01:11:58;;;;;;;1999.90;999.90;;;15.40;99.90;;;;;;5100601;28;20273;-78
2021/06/06 01:14:29;;;;;;;1999.90;999.90;;;15.20;99.90;;;;;;5100942;28;20173;-78
2021/06/06 01:17:06;;;;;;;1999.90;999.90;;;15.20;99.90;;;;;;5101101;28;20200;-78
2021/06/06 01:19:37;;;;;;;1999.90;999.90;;;15.10;99.90;;;;;;5101802;28;20537;-78
2021/06/06 01:22:27;;;;;;;1999.90;999.90;;;15.20;99.90;;;;;;5100845;28;20246;-78
2021/06/06 01:25:13;;;;;;;1999.90;999.90;;;15.10;99.90;;;;;;5106244;28;20259;-78
2021/06/06 01:27:42;;;;;;;1999.90;999.90;;;15.20;99.90;;;;;;5110904;28;20179;-79
2021/06/06 01:30:15;;;;;;;1999.90;999.90;;;15.20;99.90;;;;;;5091411;28;20176;-78
2021/06/06 01:33:00;;;;;;;1999.90;999.90;;;15.30;99.90;;;;;;5084996;28;20224;-79
2021/06/06 01:35:49;;;;;;;1999.90;999.90;;;15.30;99.90;;;;;;5085914;28;20169;-79
2021/06/06 01:38:20;;;;;;;1999.90;999.90;;;15.30;99.90;;;;;;5102687;28;20347;-79
2021/06/06 01:40:50;;;;;;;1999.90;999.90;;;15.30;99.90;;;;;;5102352;28;20187;-78
2021/06/06 01:43:21;;;;;;;1999.90;999.90;;;15.30;99.90;;;;;;5097196;22;20303;-75
2021/06/06 01:45:51;;;;;;;1999.90;999.90;;;15.30;99.90;;;;;;5073192;28;20177;-75
2021/06/06 01:48:17;;;;;;;1999.90;999.90;;;15.30;99.90;;;;;;5090581;28;20552;-75
2021/06/06 01:50:55;;;;;;;1999.90;999.90;;;15.30;99.90;;;;;;5074705;28;20192;-75
2021/06/06 01:53:22;;;;;;;1999.90;999.90;;;15.30;99.90;;;;;;5074295;28;20196;-75
2021/06/06 01:55:53;;;;;;;1999.90;999.90;;;15.20;99.90;;;;;;5074310;28;20180;-75
2021/06/06 01:58:21;;;;;;;1999.90;999.90;;;15.20;99.90;;;;;;5074537;28;20169;-75
2021/06/06 02:01:13;;;;;;;1999.90;999.90;;;15.20;99.90;;;;;;5074073;28;20209;-75
2021/06/06 02:03:39;;;;;;;1999.90;999.90;;;15.10;99.90;;;;;;5074257;28;20611;-75
2021/06/06 02:06:09;;;;;;;1999.90;999.90;;;15.20;99.90;;;;;;5073371;28;20251;-75
2021/06/06 02:08:36;;;;;;;1999.90;999.90;;;15.20;99.90;;;;;;5074155;28;20181;-75
2021/06/06 02:11:14;;;;;;;1999.90;999.90;;;15.20;99.90;;;;;;5073907;28;20671;-75
2021/06/06 02:14:10;;;;;;;1999.90;999.90;;;15.20;99.90;;;;;;5072634;28;20321;-74
2021/06/06 02:16:44;;;;;;;1999.90;999.90;;;15.20;99.90;;;;;;5072562;28;20173;-75
2021/06/06 02:19:10;;;;;;;1999.90;999.90;;;15.20;99.90;;;;;;5068507;28;20674;-75
2021/06/06 02:21:36;;;;;;;1999.90;999.90;;;15.10;99.90;;;;;;5070809;28;20173;-75
2021/06/06 02:24:04;;;;;;;1999.90;999.90;;;15.00;99.90;;;;;;5071663;28;20193;-75
2021/06/06 02:26:45;;;;;;;1999.90;999.90;;;15.10;99.90;;;;;;5071683;28;20190;-75
2021/06/06 02:29:31;;;;;;;1999.90;999.90;;;15.10;99.90;;;;;;5072928;28;20181;-74
2021/06/06 02:32:22;;;;;;;1999.90;999.90;;;15.00;99.90;;;;;;5073501;28;20768;-73
2021/06/06 02:35:05;;;;;;;1999.90;999.90;;;14.90;99.90;;;;;;5072981;28;20180;-74
2021/06/06 02:37:41;;;;;;;1999.90;999.90;;;14.90;99.90;;;;;;5073531;28;20177;-73
2021/06/06 02:40:27;;;;;;;1999.90;999.90;;;14.90;99.90;;;;;;5089139;28;20183;-74
2021/06/06 02:42:56;;;;;;;1999.90;999.90;;;14.80;99.90;;;;;;5073360;28;20219;-73
2021/06/06 02:45:27;;;;;;;1999.90;999.90;;;14.80;99.90;;;;;;5073435;28;20207;-73
2021/06/06 02:47:59;;;;;;;1999.90;999.90;;;14.80;99.90;;;;;;5073440;28;20207;-74
2021/06/06 02:50:37;;;;;;;1999.90;999.90;;;14.70;99.90;;;;;;5073230;28;20308;-75
2021/06/06 02:53:27;;;;;;;1999.90;999.90;;;14.80;99.90;;;;;;5073460;28;20196;-75
2021/06/06 02:55:57;;;;;;;1999.90;999.90;;;14.80;99.90;;;;;;5073306;28;20196;-75
2021/06/06 02:58:31;;;;;;;1999.90;999.90;;;14.90;99.90;;;;;;5073574;28;20549;-74
2021/06/06 03:01:01;;;;;;;1999.90;999.90;;;15.00;99.90;;;;;;5073402;28;20221;-75
2021/06/06 03:03:33;;;;;;;1999.90;999.90;;;15.00;99.90;;;;;;5073299;28;20232;-74
2021/06/06 03:06:02;;;;;;;1999.90;999.90;;;15.10;99.90;;;;;;5073170;28;20208;-75
2021/06/06 03:08:29;;;;;;;1999.90;999.90;;;15.10;99.90;;;;;;5073160;28;20181;-75
2021/06/06 03:10:57;;;;;;;1999.90;999.90;;;15.10;99.90;;;;;;5072203;28;20196;-75
2021/06/06 03:13:31;;;;;;;1999.90;999.90;;;15.20;99.90;;;;;;5073359;28;20194;-74
2021/06/06 03:15:59;;;;;;;1999.90;999.90;;;15.20;99.90;;;;;;5072499;28;20658;-75
2021/06/06 03:18:29;;;;;;;1999.90;999.90;;;15.20;99.90;;;;;;5072658;28;20176;-75
2021/06/06 03:21:04;;;;;;;1999.90;999.90;;;15.20;99.90;;;;;;5072999;28;20174;-75
2021/06/06 03:23:31;;;;;;;1999.90;999.90;;;15.20;99.90;;;;;;5072979;28;20200;-75
2021/06/06 03:26:05;;;;;;;1999.90;999.90;;;15.20;99.90;;;;;;5072995;28;20681;-75
2021/06/06 03:28:33;;;;;;;1999.90;999.90;;;15.20;99.90;;;;;;5073047;28;20185;-75
2021/06/06 03:31:02;;;;;;;1999.90;999.90;;;15.30;99.90;;;;;;5073061;28;20196;-75
2021/06/06 03:33:53;;;;;;;1999.90;999.90;;;15.30;99.90;;;;;;5072856;28;20224;-74
2021/06/06 03:36:26;;;;;;;1999.90;999.90;;;15.10;99.90;;;;;;5070376;28;20529;-75
2021/06/06 03:38:53;;;;;;;1999.90;999.90;;;15.00;99.90;;;;;;5071535;28;20203;-75
2021/06/06 03:41:20;;;;;;;1999.90;999.90;;;15.00;99.90;;;;;;5072776;28;20647;-75
2021/06/06 03:43:46;;;;;;;1999.90;999.90;;;14.90;99.90;;;;;;5072725;28;20212;-75
2021/06/06 03:46:12;;;;;;;1999.90;999.90;;;14.90;99.90;;;;;;5072793;28;20203;-74
2021/06/06 03:48:38;;;;;;;1999.90;999.90;;;14.90;99.90;;;;;;5072818;28;20173;-75
2021/06/06 03:51:05;;;;;;;1999.90;999.90;;;15.00;99.90;;;;;;5072790;28;20207;-75
2021/06/06 03:53:31;;;;;;;1999.90;999.90;;;14.90;99.90;;;;;;5072625;28;20194;-76
2021/06/06 03:55:56;;;;;;;1999.90;999.90;;;15.00;99.90;;;;;;5072698;28;20180;-75
2021/06/06 03:58:24;;;;;;;1999.90;999.90;;;15.00;99.90;;;;;;5072696;28;20177;-75
2021/06/06 04:00:50;;;;;;;1999.90;999.90;;;15.10;99.90;;;;;;5069423;28;20217;-75
2021/06/06 04:03:17;;;;;;;1999.90;999.90;;;15.10;99.90;;;;;;5069718;28;20201;-75
2021/06/06 04:05:44;;;;;;;1999.90;999.90;;;15.10;99.90;;;;;;5069826;28;20181;-75
2021/06/06 04:08:10;;;;;;;1999.90;999.90;;;15.10;99.90;;;;;;5060709;28;20181;-76
2021/06/06 04:10:38;;;;;;;1999.90;999.90;;;15.00;99.90;;;;;;5070819;28;20200;-75
2021/06/06 04:13:03;;;;;;;1999.90;999.90;;;14.90;99.90;;;;;;5072458;28;20603;-75
2021/06/06 04:15:30;;;;;;;1999.90;999.90;;;14.90;99.90;;;;;;5071321;28;20252;-75
2021/06/06 04:17:56;;;;;;;1999.90;999.90;;;14.90;99.90;;;;;;5071152;28;20173;-75
2021/06/06 04:20:23;;;;;;;1999.90;999.90;;;14.90;99.90;;;;;;5072569;28;20211;-74
2021/06/06 04:22:48;;;;;;;1999.90;999.90;;;15.00;99.90;;;;;;5072305;28;20193;-75
2021/06/06 04:25:16;;;;;;;1999.90;999.90;;;15.00;99.90;;;;;;5071154;28;20548;-75
2021/06/06 04:27:42;;;;;;;1999.90;999.90;;;15.00;99.90;;;;;;5072395;28;20227;-75
2021/06/06 04:30:11;;;;;;;1999.90;999.90;;;15.00;99.90;;;;;;5075992;28;20679;-75
2021/06/06 04:32:37;;;;;;;1999.90;999.90;;;15.10;99.90;;;;;;5075639;28;20216;-75
2021/06/06 04:35:04;;;;;;;1999.90;999.90;;;15.10;99.90;;;;;;5076182;28;20169;-75
2021/06/06 04:37:30;;;;;;;1999.90;999.90;;;15.20;99.90;;;;;;5076345;28;20196;-75
2021/06/06 04:39:55;;;;;;;1999.90;999.90;;;15.20;99.90;;;;;;5075810;28;20580;-75
2021/06/06 04:42:21;;;;;;;1999.90;999.90;;;15.20;99.90;;;;;;5074697;28;20221;-74
2021/06/06 04:44:49;;;;;;;1999.90;999.90;;;15.20;99.90;;;;;;5075763;28;20717;-75
2021/06/06 04:47:15;;;;;;;1999.90;999.90;;;15.20;99.90;;;;;;5075762;28;20181;-74
2021/06/06 04:49:43;;;;;;;1999.90;999.90;;;15.20;99.90;;;;;;5075550;28;20173;-76
2021/06/06 04:52:12;;;;;;;1999.90;999.90;;;15.30;99.90;;;;;;5074395;28;20196;-74
2021/06/06 04:54:38;;;;;;;1999.90;999.90;;;15.30;99.90;;;;;;5075075;28;20204;-75
2021/06/06 04:57:04;;;;;;;1999.90;999.90;;;15.30;99.90;;;;;;5075507;28;20174;-75
2021/06/06 04:59:31;;;;;;;1999.90;999.90;;;15.30;99.90;;;;;;5075550;28;20307;-75
2021/06/06 05:01:57;;;;;;;1999.90;999.90;;;15.30;99.90;;;;;;5074420;28;20584;-74
2021/06/06 05:04:23;;;;;;;1999.90;999.90;;;15.30;99.90;;;;;;5075325;28;20177;-74
2021/06/06 05:06:48;;;;;;;1999.90;999.90;;;15.40;99.90;;;;;;5075420;28;20192;-74
2021/06/06 05:09:14;;;;;;;1999.90;999.90;;;15.30;99.90;;;;;;5075298;28;20180;-74
2021/06/06 05:11:40;;;;;;;1999.90;999.90;;;15.30;99.90;;;;;;5069893;28;20201;-75
2021/06/06 05:14:06;;;;;;;1999.90;999.90;;;15.30;99.90;;;;;;5059838;28;20201;-76
2021/06/06 05:16:32;;;;;;;1999.90;999.90;;;15.30;99.90;;;;;;5074614;28;20215;-75
2021/06/06 05:18:58;;;;;;;1999.90;999.90;;;15.20;99.90;;;;;;5073599;28;20200;-75
2021/06/06 05:21:25;;;;;;;1999.90;999.90;;;15.20;99.90;;;;;;5073327;28;20623;-75
2021/06/06 05:23:51;;;;;;;1999.90;999.90;;;15.10;99.90;;;;;;5073434;28;20250;-75
2021/06/06 05:26:17;;;;;;;1999.90;999.90;;;15.20;99.90;;;;;;5067030;28;20246;-75
2021/06/06 05:28:44;;;;;;;1999.90;999.90;;;15.20;99.90;;;;;;5061685;28;20186;-76
2021/06/06 05:31:11;;;;;;;1999.90;999.90;;;15.20;99.90;;;;;;5058462;28;20205;-75
2021/06/06 05:33:36;;;;;;;1999.90;999.90;;;15.30;99.90;;;;;;5055923;28;20332;-75
2021/06/06 05:36:03;;;;;;;1999.90;999.90;;;15.30;99.90;;;;;;5058082;28;20736;-76
2021/06/06 05:38:31;;;;;;;1999.90;999.90;;;15.30;99.90;;;;;;5056606;28;20185;-75
2021/06/06 05:40:57;;;;;;;1999.90;999.90;;;15.30;99.90;;;;;;5056526;28;20174;-75
2021/06/06 05:43:23;;;;;;;1999.90;999.90;;;15.30;99.90;;;;;;5054950;28;20778;-76
2021/06/06 05:45:50;;;;;;;1999.90;999.90;;;15.40;99.90;;;;;;5054122;28;20201;-76
2021/06/06 05:48:16;;;;;;;1999.90;999.90;;;15.40;99.90;;;;;;5068531;28;20177;-75
2021/06/06 05:50:45;;;;;;;1999.90;999.90;;;15.40;99.90;;;;;;5072839;28;20224;-75
2021/06/06 05:53:11;;;;;;;1999.90;999.90;;;15.40;99.90;;;;;;5072891;28;20193;-74
2021/06/06 05:55:37;;;;;;;1999.90;999.90;;;15.40;99.90;;;;;;5071405;28;20180;-74
2021/06/06 05:58:05;;;;;;;1999.90;999.90;;;15.30;99.90;;;;;;5060481;28;20717;-74
2021/06/06 06:00:41;;;;;;;1999.90;999.90;;;15.20;99.90;;;;;;5054664;28;20182;-75
2021/06/06 06:03:08;;;;;;;1999.90;999.90;;;15.30;99.90;;;;;;5069395;28;20220;-75
2021/06/06 06:05:34;;;;;;;1999.90;999.90;;;15.30;99.90;;;;;;5062708;28;20266;-75
2021/06/06 06:08:15;;;;;;;1999.90;999.90;;;15.10;99.90;;;;;;5058919;28;20249;-75
2021/06/06 06:10:41;;;;;;;1999.90;999.90;;;15.10;99.90;;;;;;5058412;28;20200;-74
2021/06/06 06:13:07;;;;;;;1999.90;999.90;;;15.20;99.90;;;;;;5065485;28;20201;-74
2021/06/06 06:15:33;;;;;;;1999.90;999.90;;;15.20;99.90;;;;;;5072362;28;20212;-75
2021/06/06 06:17:59;;;;;;;1999.90;999.90;;;15.20;99.90;;;;;;5074134;28;20169;-75
2021/06/06 06:20:25;;;;;;;1999.90;999.90;;;15.20;99.90;;;;;;5073806;28;20192;-75
2021/06/06 06:22:50;;;;;;;1999.90;999.90;;;15.20;99.90;;;;;;5072676;28;20659;-75
2021/06/06 06:25:18;;;;;;;1999.90;999.90;;;15.30;99.90;;;;;;5073886;28;20180;-75
2021/06/06 06:27:44;;;;;;;1999.90;999.90;;;15.30;99.90;;;;;;5070281;28;20170;-75
2021/06/06 06:30:17;;;;;;;1999.90;999.90;;;15.20;99.90;;;;;;5063371;28;20554;-75
2021/06/06 06:32:43;;;;;;;1999.90;999.90;;;15.10;99.90;;;;;;5072656;28;20208;-75
2021/06/06 06:35:10;;;;;;;1999.90;999.90;;;15.10;99.90;;;;;;5073050;28;20548;-75
2021/06/06 06:37:36;;;;;;;1999.90;999.90;;;15.10;99.90;;;;;;5067796;28;20591;-75
2021/06/06 06:40:02;;;;;;;1999.90;999.90;;;15.00;99.90;;;;;;5067373;28;20667;-75
2021/06/06 06:42:28;;;;;;;1999.90;999.90;;;15.00;99.90;;;;;;5054332;28;20213;-76
2021/06/06 06:44:54;;;;;;;1999.90;999.90;;;15.10;99.90;;;;;;5072656;28;20587;-76
2021/06/06 06:47:20;;;;;;;1999.90;999.90;;;15.10;99.90;;;;;;5070162;28;20223;-75
2021/06/06 06:49:45;;;;;;;1999.90;999.90;;;15.10;99.90;;;;;;5071346;28;20235;-75
2021/06/06 06:52:12;;;;;;;1999.90;999.90;;;15.20;99.90;;;;;;5072176;28;20694;-74
2021/06/06 06:54:38;;;;;;;1999.90;999.90;;;15.10;99.90;;;;;;5072618;28;20181;-75
2021/06/06 06:57:04;;;;;;;1999.90;999.90;;;15.10;99.90;;;;;;5073138;28;20569;-75
2021/06/06 06:59:29;;;;;;;1999.90;999.90;;;15.10;99.90;;;;;;5071669;28;20257;-75
2021/06/06 07:02:00;;;;;;;1999.90;999.90;;;15.20;99.90;;;;;;5072906;28;20238;-76
2021/06/06 07:04:26;;;;;;;1999.90;999.90;;;15.20;99.90;;;;;;5073200;28;20181;-74
2021/06/06 07:06:53;;;;;;;1999.90;999.90;;;15.30;99.90;;;;;;5073272;28;20185;-75
2021/06/06 07:09:20;;;;;;;1999.90;999.90;;;15.40;99.90;;;;;;5071454;28;20663;-74
2021/06/06 07:11:46;;;;;;;1999.90;999.90;;;15.50;99.90;;;;;;5071848;28;20204;-74
2021/06/06 07:14:11;;;;;;;1999.90;999.90;;;15.50;99.90;;;;;;5073042;28;20658;-74
2021/06/06 07:16:38;;;;;;;1999.90;999.90;;;15.50;99.90;;;;;;5072760;28;20177;-74
2021/06/06 07:19:05;;;;;;;1999.90;999.90;;;15.60;99.90;;;;;;5073154;28;20172;-75
2021/06/06 07:21:32;;;;;;;1999.90;999.90;;;15.60;99.90;;;;;;5072950;28;20177;-76
2021/06/06 07:23:58;;;;;;;1999.90;999.90;;;15.50;99.90;;;;;;5070907;28;20232;-75
2021/06/06 07:26:33;;;;;;;1999.90;999.90;;;15.60;99.90;;;;;;5069606;28;20221;-75
2021/06/06 07:29:01;;;;;;;1999.90;999.90;;;15.60;99.90;;;;;;5062887;28;20199;-73
2021/06/06 07:31:28;;;;;;;1999.90;999.90;;;15.60;99.90;;;;;;5068482;28;20195;-74
2021/06/06 07:33:54;;;;;;;1999.90;999.90;;;15.70;99.90;;;;;;5060497;28;20189;-74
2021/06/06 07:36:21;;;;;;;1999.90;999.90;;;15.70;99.90;;;;;;5070147;28;20659;-75
2021/06/06 07:38:51;;;;;;;1999.90;999.90;;;15.60;99.90;;;;;;5062278;28;20204;-75
2021/06/06 07:41:20;;;;;;;1999.90;999.90;;;15.60;99.90;;;;;;5070739;28;20689;-75
2021/06/06 07:43:45;;;;;;;1999.90;999.90;;;15.60;99.90;;;;;;5072695;28;20217;-75
2021/06/06 07:46:14;;;;;;;1999.90;999.90;;;15.60;99.90;;;;;;5072397;28;20234;-75
2021/06/06 07:48:40;;;;;;;1999.90;999.90;;;15.60;99.90;;;;;;5058840;28;20518;-75
2021/06/06 07:51:06;;;;;;;1999.90;999.90;;;15.60;99.90;;;;;;5072603;28;20209;-74
2021/06/06 07:53:31;;;;;;;1999.90;999.90;;;15.70;99.90;;;;;;5072731;28;20189;-75
2021/06/06 07:55:57;;;;;;;1999.90;999.90;;;15.70;99.90;;;;;;5071162;28;20185;-75
2021/06/06 07:58:27;;;;;;;1999.90;999.90;;;15.80;99.90;;;;;;5072570;28;20280;-75
2021/06/06 08:00:53;;;;;;;1999.90;999.90;;;15.80;99.90;;;;;;5072722;28;20173;-74
2021/06/06 08:03:19;;;;;;;1999.90;999.90;;;15.80;99.90;;;;;;5073448;28;20284;-75
2021/06/06 08:05:45;;;;;;;1999.90;999.90;;;15.70;99.90;;;;;;5076666;28;20205;-75
2021/06/06 08:08:13;;;;;;;1999.90;999.90;;;15.60;99.90;;;;;;5075131;28;20192;-75
2021/06/06 08:10:44;;;;;;;1999.90;999.90;;;15.60;99.90;;;;;;5074305;28;20185;-76
2021/06/06 08:13:10;;;;;;;1999.90;999.90;;;15.50;99.90;;;;;;5074351;28;20679;-75
2021/06/06 08:15:35;;;;;;;1999.90;999.90;;;15.60;99.90;;;;;;5075405;28;20184;-75
2021/06/06 08:18:06;;;;;;;1999.90;999.90;;;15.70;99.90;;;;;;5074996;28;20197;-75
2021/06/06 08:20:37;;;;;;;1999.90;999.90;;;15.70;99.90;;;;;;5076354;28;20180;-75
2021/06/06 08:23:04;;;;;;;1999.90;999.90;;;15.70;99.90;;;;;;5076159;28;20193;-75
2021/06/06 08:25:29;;;;;;;1999.90;999.90;;;15.70;99.90;;;;;;5075490;28;20180;-75
2021/06/06 08:27:55;;;;;;;1999.90;999.90;;;15.60;99.90;;;;;;5076239;28;20173;-75
2021/06/06 08:30:29;;;;;;;1999.90;999.90;;;15.60;99.90;;;;;;5071935;28;20228;-75
2021/06/06 08:32:55;;;;;;;1999.90;999.90;;;15.70;99.90;;;;;;5061910;28;20193;-75
2021/06/06 08:35:21;;;;;;;1999.90;999.90;;;15.70;99.90;;;;;;5076054;28;20576;-75
2021/06/06 08:37:47;;;;;;;1999.90;999.90;;;15.70;99.90;;;;;;5074666;28;20173;-76
2021/06/06 08:40:21;;;;;;;1999.90;999.90;;;15.80;99.90;;;;;;5074594;28;20534;-75
2021/06/06 08:42:49;;;;;;;1999.90;999.90;;;15.80;99.90;;;;;;5076037;28;20213;-74
2021/06/06 08:45:29;;;;;;;1999.90;999.90;;;15.70;99.90;;;;;;5075260;28;20672;-75
2021/06/06 08:47:57;;;;;;;1999.90;999.90;;;15.70;99.90;;;;;;5075409;28;20181;-74
2021/06/06 08:50:27;;;;;;;1999.90;999.90;;;15.70;99.90;;;;;;5074264;28;20208;-75
2021/06/06 08:53:22;;;;;;;1999.90;999.90;;;15.60;99.90;;;;;;5075449;28;20255;-75
2021/06/06 08:56:06;;;;;;;1999.90;999.90;;;15.60;99.90;;;;;;5073994;28;20554;-75
2021/06/06 08:58:44;;;;;;;1999.90;999.90;;;15.60;99.90;;;;;;5074303;28;20203;-75
2021/06/06 09:01:32;;;;;;;1999.90;999.90;;;15.60;99.90;;;;;;5074483;28;20183;-74
2021/06/06 09:04:00;;;;;;;1999.90;999.90;;;15.60;99.90;;;;;;5074611;28;20576;-75
2021/06/06 09:06:41;;;;;;;1999.90;999.90;;;15.60;99.90;;;;;;5074099;28;20652;-74
2021/06/06 09:09:09;;;;;;;1999.90;999.90;;;15.80;99.90;;;;;;5071628;28;20189;-75
2021/06/06 09:11:36;;;;;;;1999.90;999.90;;;15.80;99.90;;;;;;5075395;28;20229;-76
2021/06/06 09:14:02;;;;;;;1999.90;999.90;;;15.90;99.90;;;;;;5074351;28;20217;-76
2021/06/06 09:16:56;;;;;;;1999.90;999.90;;;15.90;99.90;;;;;;5075000;28;20180;-76
2021/06/06 09:19:24;;;;;;;1999.90;999.90;;;16.00;99.90;;;;;;5062059;28;20185;-74
2021/06/06 09:22:02;;;;;;;1999.90;999.90;;;15.90;99.90;;;;;;5071583;28;20181;-74
2021/06/06 09:24:37;;;;;;;1999.90;999.90;;;15.90;99.90;;;;;;5073144;28;20228;-75
2021/06/06 09:27:09;;;;;;;1999.90;999.90;;;16.00;99.90;;;;;;5074903;28;20169;-74
2021/06/06 09:29:34;;;;;;;1999.90;999.90;;;15.90;99.90;;;;;;5073587;28;20268;-74
2021/06/06 09:32:10;;;;;;;1999.90;999.90;;;15.90;99.90;;;;;;5074102;28;20279;-74
2021/06/06 09:34:36;;;;;;;1999.90;999.90;;;15.80;99.90;;;;;;5074863;28;20181;-74
2021/06/06 09:37:13;;;;;;;1999.90;999.90;;;15.80;99.90;;;;;;5073323;28;20658;-74
2021/06/06 09:39:45;;;;;;;1999.90;999.90;;;15.90;99.90;;;;;;5075111;28;20506;-74
2021/06/06 09:42:18;;;;;;;1999.90;999.90;;;15.90;99.90;;;;;;5074475;28;20205;-74
2021/06/06 09:44:44;;;;;;;1999.90;999.90;;;15.90;99.90;;;;;;5073571;28;20173;-75
2021/06/06 09:47:15;;;;;;;1999.90;999.90;;;15.80;99.90;;;;;;5074741;28;20525;-75
2021/06/06 09:49:48;;;;;;;1999.90;999.90;;;15.90;99.90;;;;;;5074558;28;20631;-75
2021/06/06 09:52:41;;;;;;;1999.90;999.90;;;15.80;99.90;;;;;;5074639;28;20200;-76
2021/06/06 09:55:19;;;;;;;1999.90;999.90;;;15.90;99.90;;;;;;5074712;28;20637;-75
2021/06/06 09:57:46;;;;;;;1999.90;999.90;;;15.80;99.90;;;;;;5074327;28;20173;-75
2021/06/06 10:00:25;;;;;;;1999.90;999.90;;;15.80;99.90;;;;;;5074359;28;20172;-75
2021/06/06 10:03:00;;;;;;;1999.90;999.90;;;15.70;99.90;;;;;;5073962;28;20625;-74
2021/06/06 10:05:30;;;;;;;1999.90;999.90;;;15.70;99.90;;;;;;5075399;28;20309;-75
2021/06/06 10:07:59;;;;;;;1999.90;999.90;;;15.70;99.90;;;;;;5072662;28;20179;-74
2021/06/06 10:10:30;;;;;;;1999.90;999.90;;;15.80;99.90;;;;;;5072713;28;20570;-74
2021/06/06 10:12:59;;;;;;;1999.90;999.90;;;15.90;99.90;;;;;;5071183;28;20216;-74
2021/06/06 10:15:48;;;;;;;1999.90;999.90;;;15.90;99.90;;;;;;5073975;28;20185;-74
2021/06/06 10:18:28;;;;;;;1999.90;999.90;;;15.90;99.90;;;;;;5072411;28;20267;-74
2021/06/06 10:21:24;;;;;;;1999.90;999.90;;;15.90;99.90;;;;;;5065124;28;20208;-75
2021/06/06 10:23:56;;;;;;;1999.90;999.90;;;15.80;99.90;;;;;;5067558;28;20197;-75
2021/06/06 10:26:34;;;;;;;1999.90;999.90;;;15.70;99.90;;;;;;5061673;28;20247;-75
2021/06/06 10:29:30;;;;;;;1999.90;999.90;;;15.70;99.90;;;;;;5065743;28;20180;-75
2021/06/06 10:32:06;;;;;;;1999.90;999.90;;;15.70;99.90;;;;;;5068641;28;20193;-75
2021/06/06 10:34:37;;;;;;;1999.90;999.90;;;15.70;99.90;;;;;;5068806;28;20252;-74
2021/06/06 10:37:04;;;;;;;1999.90;999.90;;;15.70;99.90;;;;;;5068959;28;20204;-73
2021/06/06 10:39:43;;;;;;;1999.90;999.90;;;15.70;99.90;;;;;;5070312;28;20180;-73
2021/06/06 10:42:22;;;;;;;1999.90;999.90;;;15.60;99.90;;;;;;5083205;28;20252;-73
2021/06/06 10:45:16;;;;;;;1999.90;999.90;;;15.70;99.90;;;;;;5066165;28;20652;-74
2021/06/06 10:47:54;;;;;;;1999.90;999.90;;;15.70;99.90;;;;;;5062443;28;20648;-74
2021/06/06 10:50:23;;;;;;;1999.90;999.90;;;15.70;99.90;;;;;;5070024;28;20178;-75
2021/06/06 10:52:51;;;;;;;1999.90;999.90;;;15.70;99.90;;;;;;5069675;28;20201;-74
2021/06/06 10:55:31;;;;;;;1999.90;999.90;;;15.80;99.90;;;;;;5066760;28;20234;-74
2021/06/06 10:58:08;;;;;;;1999.90;999.90;;;15.80;99.90;;;;;;5066681;28;20169;-75
2021/06/06 11:00:39;;;;;;;1999.90;999.90;;;15.90;99.90;;;;;;5050566;28;20277;-75
2021/06/06 11:03:11;;;;;;;1999.90;999.90;;;16.00;99.90;;;;;;5067240;28;20219;-75
2021/06/06 11:05:36;;;;;;;1999.90;999.90;;;16.00;99.90;;;;;;5065333;28;20228;-75
2021/06/06 11:08:14;;;;;;;1999.90;999.90;;;15.90;99.90;;;;;;5064539;28;20186;-75
2021/06/06 11:10:40;;;;;;;1999.90;999.90;;;15.80;99.90;;;;;;5070782;28;20247;-75
2021/06/06 11:13:32;;;;;;;1999.90;999.90;;;15.80;99.90;;;;;;5068647;28;20197;-75
2021/06/06 11:16:07;;;;;;;1999.90;999.90;;;15.80;99.90;;;;;;5061629;28;20655;-75
2021/06/06 11:18:47;;;;;;;1999.90;999.90;;;15.70;99.90;;;;;;5069907;28;20172;-74
2021/06/06 11:21:14;;;;;;;1999.90;999.90;;;15.60;99.90;;;;;;5072923;28;20177;-74
2021/06/06 11:23:42;;;;;;;1999.90;999.90;;;15.60;99.90;;;;;;5072689;28;20192;-75
2021/06/06 11:26:32;;;;;;;1999.90;999.90;;;15.60;99.90;;;;;;5069642;28;20283;-74
2021/06/06 11:29:20;;;;;;;1999.90;999.90;;;15.60;99.90;;;;;;5070255;28;20190;-75
2021/06/06 11:32:08;;;;;;;1999.90;999.90;;;15.50;99.90;;;;;;5055822;28;20691;-74
2021/06/06 11:34:36;;;;;;;1999.90;999.90;;;15.60;99.90;;;;;;5051761;28;20208;-74
2021/06/06 11:37:02;;;;;;;1999.90;999.90;;;15.60;99.90;;;;;;5054797;28;20166;-74
2021/06/06 11:39:36;;;;;;;1999.90;999.90;;;15.70;99.90;;;;;;5076748;28;20184;-74
2021/06/06 11:42:15;;;;;;;1999.90;999.90;;;15.70;99.90;;;;;;5074605;28;20181;-79
2021/06/06 11:44:48;;;;;;;1999.90;999.90;;;15.70;99.90;;;;;;5073607;28;20602;-79
2021/06/06 11:47:22;;;;;;;1999.90;999.90;;;15.60;99.90;;;;;;5079850;28;20173;-79
2021/06/06 11:50:15;;;;;;;1999.90;999.90;;;15.70;99.90;;;;;;5079781;28;20176;-79
2021/06/06 11:52:54;;;;;;;1999.90;999.90;;;15.80;99.90;;;;;;5074566;28;20201;-79
2021/06/06 11:55:29;;;;;;;1999.90;999.90;;;15.90;99.90;;;;;;5078185;28;20173;-78
2021/06/06 11:58:05;;;;;;;1999.90;999.90;;;15.90;99.90;;;;;;5077153;28;20240;-78
2021/06/06 12:00:45;;;;;;;1999.90;999.90;;;16.00;99.90;;;;;;5078406;28;20251;-78
2021/06/06 12:03:27;;;;;;;1999.90;999.90;;;16.10;99.90;;;;;;5075102;28;20202;-78
2021/06/06 12:05:57;;;;;;;1999.90;999.90;;;16.00;99.90;;;;;;5080119;28;20165;-79
2021/06/06 12:08:42;;;;;;;1999.90;999.90;;;16.00;99.90;;;;;;5079582;28;20173;-80
2021/06/06 12:11:15;;;;;;;1999.90;999.90;;;16.00;99.90;;;;;;5079670;28;20675;-79
2021/06/06 12:13:42;;;;;;;1999.90;999.90;;;16.00;99.90;;;;;;5078588;28;20200;-79
2021/06/06 12:16:24;;;;;;;1999.90;999.90;;;16.00;99.90;;;;;;5078316;28;20672;-79
2021/06/06 12:19:09;;;;;;;1999.90;999.90;;;16.10;99.90;;;;;;5079540;28;20165;-79